createdAt,value
2019-06-20T08:25:02.094Z,2721
2019-06-20T08:26:01.248Z,4154
2019-06-20T08:27:01.253Z,5300
2019-06-20T08:28:01.097Z,4987
2019-06-20T08:30:02.070Z,4292
2019-06-20T08:31:01.333Z,3962
2019-06-20T08:32:01.355Z,3195
2019-06-20T08:33:02.186Z,4828
2019-06-20T08:34:01.018Z,4516
2019-06-20T08:35:01.087Z,4085
2019-06-20T08:36:01.013Z,4361
2019-06-20T08:37:01.060Z,2365
2019-06-20T08:38:01.793Z,3647
2019-06-20T08:39:01.133Z,3327
2019-06-20T08:40:00.883Z,1395
2019-06-20T08:41:00.808Z,1066
2019-06-20T08:42:00.919Z,514
2019-06-20T08:43:00.610Z,532
2019-06-20T08:44:00.581Z,663
2019-06-20T08:45:00.501Z,501
2019-06-20T08:46:00.559Z,3909
2019-06-20T08:47:00.959Z,4462
2019-06-20T08:48:01.181Z,4475
2019-06-20T08:49:00.256Z,3966
2019-06-20T08:50:00.197Z,4790
2019-06-20T08:51:01.043Z,4898
2019-06-20T08:52:00.088Z,4636
2019-06-20T08:53:00.231Z,3372
2019-06-20T08:53:59.917Z,4941
2019-06-20T08:54:59.881Z,2068
2019-06-20T08:55:59.689Z,4330
2019-06-20T08:56:59.626Z,3747
2019-06-20T08:58:00.014Z,3136
2019-06-20T08:58:59.354Z,3236
2019-06-20T08:59:59.394Z,3709
2019-06-20T09:01:01.122Z,3345
2019-06-20T09:02:00.572Z,2908
2019-06-20T09:02:59.053Z,3101
2019-06-20T09:03:58.968Z,5428
2019-06-20T09:04:58.784Z,1591
2019-06-20T09:05:58.653Z,3639
2019-06-20T09:06:59.074Z,3434
2019-06-20T09:07:58.910Z,3568
2019-06-20T09:08:58.818Z,2153
2019-06-20T09:09:58.531Z,1649
2019-06-20T09:10:58.333Z,801
2019-06-20T09:11:59.130Z,732
2019-06-20T09:12:57.926Z,584
2019-06-20T09:13:58.019Z,773
2019-06-20T09:14:57.864Z,1017
2019-06-20T09:15:57.632Z,886
2019-06-20T09:16:57.723Z,924
2019-06-20T09:17:57.295Z,1054
2019-06-20T09:18:57.097Z,1114
2019-06-20T09:19:56.849Z,1505
2019-06-20T09:20:56.748Z,1264
2019-06-20T09:21:56.709Z,864
2019-06-20T09:22:57.590Z,1932
2019-06-20T09:23:56.498Z,1653
2019-06-20T09:24:57.293Z,1858
2019-06-20T09:25:58.437Z,1756
2019-06-20T09:26:56.019Z,1472
2019-06-20T09:27:57.021Z,2156
2019-06-20T09:28:55.952Z,3621
2019-06-20T09:29:57.187Z,3717
2019-06-20T09:30:55.830Z,3964
2019-06-20T09:31:56.639Z,3661
2019-06-20T09:32:56.632Z,4742
2019-06-20T09:33:59.937Z,2873
2019-06-20T09:34:55.259Z,5136
2019-06-20T09:35:56.157Z,3232
2019-06-20T09:36:56.128Z,1878
2019-06-20T09:37:55.911Z,5505
2019-06-20T09:38:56.309Z,5790
2019-06-20T09:39:55.670Z,3418
2019-06-20T09:40:55.720Z,4338
2019-06-20T09:41:55.454Z,3200
2019-06-20T09:42:55.316Z,4542
2019-06-20T09:43:55.256Z,4822
2019-06-20T09:44:55.163Z,5673
2019-06-20T09:45:54.835Z,4683
2019-06-20T09:46:54.742Z,3598
2019-06-20T09:47:54.695Z,2341
2019-06-20T09:48:54.418Z,2336
2019-06-20T09:49:55.939Z,1263
2019-06-20T09:50:53.369Z,2034
2019-06-20T09:51:53.065Z,1399
2019-06-20T09:52:53.551Z,2310
2019-06-20T09:53:52.668Z,1839
2019-06-20T09:54:52.621Z,2089
2019-06-20T09:55:52.430Z,2952
2019-06-20T09:56:53.779Z,2930
2019-06-20T09:57:52.400Z,2842
2019-06-20T09:58:51.899Z,2477
2019-06-20T10:00:51.676Z,2056
2019-06-20T10:01:51.891Z,1811
2019-06-20T10:02:52.376Z,1084
2019-06-20T10:03:51.272Z,749
2019-06-20T10:04:51.113Z,1467
2019-06-20T10:05:51.056Z,1402
2019-06-20T10:06:51.051Z,658
2019-06-20T10:07:50.945Z,1008
2019-06-20T10:08:51.044Z,1551
2019-06-20T10:09:50.707Z,2355
2019-06-20T10:10:51.007Z,1951
2019-06-20T10:11:50.665Z,2574
2019-06-20T10:12:50.416Z,835
2019-06-20T10:13:52.905Z,3724
2019-06-20T10:14:50.340Z,3225
2019-06-20T10:15:50.153Z,1917
2019-06-20T10:16:51.219Z,1644
2019-06-20T10:17:48.943Z,2592
2019-06-20T10:18:51.029Z,3005
2019-06-20T10:19:50.834Z,2445
2019-06-20T10:20:49.738Z,2060
2019-06-20T10:21:50.543Z,1805
2019-06-20T10:22:49.703Z,944
2019-06-20T10:23:50.587Z,1725
2019-06-20T10:24:50.155Z,1351
2019-06-20T10:25:50.259Z,1520
2019-06-20T10:26:50.141Z,1370
2019-06-20T10:27:50.069Z,880
2019-06-20T10:28:49.845Z,974
2019-06-20T10:29:49.784Z,915
2019-06-20T10:30:49.854Z,882
2019-06-20T10:31:49.591Z,1383
2019-06-20T10:32:49.691Z,1630
2019-06-20T10:33:49.724Z,1696
2019-06-20T10:34:49.332Z,1681
2019-06-20T10:35:49.108Z,1406
2019-06-20T10:36:48.912Z,1636
2019-06-20T10:37:49.012Z,1580
2019-06-20T10:38:48.944Z,1500
2019-06-20T10:39:48.772Z,2257
2019-06-20T10:40:48.720Z,2842
2019-06-20T10:41:48.939Z,3422
2019-06-20T10:42:48.918Z,3937
2019-06-20T10:43:48.409Z,4174
2019-06-20T10:44:48.618Z,4470
2019-06-20T10:45:48.250Z,3028
2019-06-20T10:46:47.976Z,2143
2019-06-20T10:47:47.540Z,3499
2019-06-20T10:48:46.830Z,2504
2019-06-20T10:49:46.571Z,2925
2019-06-20T10:50:46.497Z,2744
2019-06-20T10:51:46.431Z,2881
2019-06-20T10:52:46.267Z,3435
2019-06-20T10:53:48.025Z,2751
2019-06-20T10:54:45.917Z,1011
2019-06-20T10:55:45.783Z,1188
2019-06-20T10:56:45.748Z,5146
2019-06-20T10:57:45.354Z,5244
2019-06-20T10:58:45.191Z,5274
2019-06-20T10:59:45.187Z,5780
2019-06-20T11:00:44.906Z,5066
2019-06-20T11:01:45.017Z,4651
2019-06-20T11:02:45.763Z,5950
2019-06-20T11:03:44.574Z,5648
2019-06-20T11:04:44.472Z,8133
2019-06-20T11:05:44.328Z,8126
2019-06-20T11:06:44.177Z,7199
2019-06-20T11:07:44.184Z,5221
2019-06-20T11:08:43.993Z,5183
2019-06-20T11:09:43.876Z,7221
2019-06-20T11:10:43.816Z,7423
2019-06-20T11:11:43.480Z,6587
2019-06-20T11:12:49.894Z,6366
2019-06-20T11:13:43.212Z,4534
2019-06-20T11:14:42.945Z,3026
2019-06-20T11:15:42.863Z,3772
2019-06-20T11:16:43.829Z,3250
2019-06-20T11:17:42.856Z,3745
2019-06-20T11:18:42.434Z,2537
2019-06-20T11:19:42.419Z,2390
2019-06-20T11:20:43.188Z,2458
2019-06-20T11:21:41.979Z,2325
2019-06-20T11:22:41.943Z,2220
2019-06-20T11:23:41.789Z,2516
2019-06-20T11:24:41.785Z,2929
2019-06-20T11:25:42.446Z,2223
2019-06-20T11:26:41.947Z,5879
2019-06-20T11:27:41.478Z,5740
2019-06-20T11:28:43.631Z,6822
2019-06-20T11:29:40.291Z,6584
2019-06-20T11:31:45.025Z,7409
2019-06-20T11:32:42.301Z,7425
2019-06-20T11:33:40.722Z,7094
2019-06-20T11:34:43.613Z,6338
2019-06-20T11:35:40.398Z,6412
2019-06-20T11:36:41.200Z,7307
2019-06-20T11:37:40.894Z,6411
2019-06-20T11:38:43.360Z,6061
2019-06-20T11:39:39.789Z,6245
2019-06-20T11:40:40.434Z,5824
2019-06-20T11:41:40.378Z,6983
2019-06-20T11:42:40.710Z,5479
2019-06-20T11:43:38.871Z,3379
2019-06-20T11:44:39.696Z,2070
2019-06-20T11:45:39.563Z,4738
2019-06-20T11:46:39.344Z,5467
2019-06-20T11:47:39.258Z,5557
2019-06-20T11:48:39.379Z,5359
2019-06-20T11:49:39.197Z,4837
2019-06-20T11:50:38.712Z,4866
2019-06-20T11:51:38.522Z,5454
2019-06-20T11:52:40.953Z,6998
2019-06-20T11:53:37.167Z,4142
2019-06-20T11:54:36.941Z,6602
2019-06-20T12:01:43.466Z,4041
2019-06-20T12:02:44.685Z,4362
2019-06-20T12:03:43.414Z,1973
2019-06-20T12:04:43.596Z,2166
2019-06-20T12:05:43.570Z,1930
2019-06-20T12:06:43.672Z,2013
2019-06-20T12:07:44.080Z,2013
2019-06-20T12:08:43.442Z,2139
2019-06-20T12:09:45.365Z,3583
2019-06-20T12:10:44.008Z,3827
2019-06-20T12:11:43.360Z,731
2019-06-20T12:12:43.361Z,1400
2019-06-20T12:13:43.110Z,3031
2019-06-20T12:14:43.045Z,2453
2019-06-20T12:15:43.282Z,2295
2019-06-20T12:16:43.185Z,2277
2019-06-20T12:17:43.697Z,3561
2019-06-20T12:18:43.864Z,2408
2019-06-20T12:19:43.325Z,2636
2019-06-20T12:20:43.259Z,2365
2019-06-20T12:21:43.527Z,2282
2019-06-20T12:22:43.544Z,2377
2019-06-20T12:23:43.498Z,2252
2019-06-20T12:24:43.285Z,2404
2019-06-20T12:25:43.107Z,2526
2019-06-20T12:26:43.159Z,2280
2019-06-20T12:27:43.864Z,2261
2019-06-20T12:28:43.226Z,2288
2019-06-20T12:29:43.091Z,2327
2019-06-20T12:30:44.266Z,2396
2019-06-20T12:31:47.053Z,2435
2019-06-20T12:32:45.393Z,2442
2019-06-20T12:33:43.720Z,2187
2019-06-20T12:34:43.343Z,2035
2019-06-20T12:35:43.107Z,1740
2019-06-20T12:36:43.190Z,1721
2019-06-20T12:37:46.429Z,1628
2019-06-20T12:38:44.905Z,1684
2019-06-20T12:39:43.151Z,1747
2019-06-20T12:40:42.794Z,1624
2019-06-20T12:41:44.255Z,1473
2019-06-20T12:42:43.494Z,1490
2019-06-20T12:43:43.096Z,1574
2019-06-20T12:44:42.643Z,1515
2019-06-20T12:45:46.081Z,1791
2019-06-20T12:46:43.641Z,1689
2019-06-20T12:47:42.444Z,1725
2019-06-20T12:48:43.608Z,1723
2019-06-20T12:49:42.583Z,1749
2019-06-20T12:50:43.871Z,1770
2019-06-20T12:51:43.430Z,1529
2019-06-20T12:52:44.121Z,1646
2019-06-20T12:53:42.680Z,1378
2019-06-20T12:54:43.676Z,1452
2019-06-20T12:55:44.230Z,1360
2019-06-20T12:56:42.730Z,1186
2019-06-20T12:57:42.655Z,1147
2019-06-20T12:58:43.090Z,991
2019-06-20T12:59:43.022Z,919
2019-06-20T13:00:43.444Z,873
2019-06-20T13:01:46.424Z,872
2019-06-20T13:02:44.179Z,865
2019-06-20T13:03:44.728Z,1043
2019-06-20T13:04:42.622Z,1263
2019-06-20T13:05:43.633Z,1213
2019-06-20T13:06:43.186Z,1533
2019-06-20T13:07:42.773Z,1701
2019-06-20T13:08:43.927Z,1835
2019-06-20T13:09:42.774Z,1794
2019-06-20T13:10:42.804Z,1734
2019-06-20T13:11:43.608Z,1486
2019-06-20T13:12:44.900Z,1526
2019-06-20T13:13:43.094Z,1856
2019-06-20T13:14:43.744Z,1627
2019-06-20T13:15:43.402Z,1563
2019-06-20T13:16:44.615Z,1467
2019-06-20T13:17:43.564Z,1313
2019-06-20T13:18:44.949Z,1188
2019-06-20T13:19:42.995Z,1081
2019-06-20T13:20:43.045Z,1066
2019-06-20T13:21:43.181Z,905
2019-06-20T13:22:43.270Z,879
2019-06-20T13:23:43.763Z,735
2019-06-20T13:24:43.747Z,573
2019-06-20T13:25:43.222Z,374
2019-06-20T13:26:47.334Z,568
2019-06-20T13:27:44.329Z,524
2019-06-20T13:29:43.819Z,490
2019-06-20T13:30:47.181Z,554
2019-06-20T13:31:58.045Z,548
2019-06-20T13:32:43.752Z,569
2019-06-20T13:33:43.376Z,564
2019-06-20T13:34:43.293Z,569
2019-06-20T13:35:44.080Z,651
2019-06-20T13:36:43.534Z,734
2019-06-20T13:37:43.790Z,796
2019-06-20T13:38:43.255Z,912
2019-06-20T13:39:44.263Z,948
2019-06-20T13:40:43.988Z,981
2019-06-20T13:41:44.554Z,956
2019-06-20T13:42:44.571Z,906
2019-06-20T13:44:16.430Z,887
2019-06-20T13:45:45.718Z,1046
2019-06-20T13:46:45.146Z,965
2019-06-20T13:47:44.295Z,909
2019-06-20T13:48:44.340Z,953
2019-06-20T13:49:44.445Z,959
2019-06-20T13:50:44.024Z,843
2019-06-20T13:51:44.424Z,928
2019-06-20T13:52:45.310Z,915
2019-06-20T13:53:45.089Z,860
2019-06-20T13:54:44.944Z,753
2019-06-20T13:55:44.428Z,782
2019-06-20T13:56:48.358Z,790
2019-06-20T13:57:45.648Z,783
2019-06-20T13:58:47.280Z,918
2019-06-20T13:59:46.333Z,918
2019-06-20T14:00:49.393Z,1098
2019-06-20T14:01:46.055Z,1213
2019-06-20T14:02:45.312Z,1348
2019-06-20T14:03:45.636Z,1473
2019-06-20T14:04:45.066Z,1432
2019-06-20T14:05:45.892Z,1564
2019-06-20T14:06:46.136Z,1471
2019-06-20T14:07:48.078Z,1542
2019-06-20T14:08:46.314Z,1519
2019-06-20T14:09:47.509Z,1938
2019-06-20T14:10:48.475Z,2143
2019-06-20T14:11:46.082Z,2307
2019-06-20T14:12:45.410Z,2302
2019-06-20T14:13:48.324Z,2338
2019-06-20T14:14:46.634Z,2357
2019-06-20T14:15:47.295Z,2611
2019-06-20T14:16:47.097Z,3078
2019-06-20T14:17:45.712Z,3172
2019-06-20T14:18:49.032Z,2987
2019-06-20T14:19:47.407Z,3025
2019-06-20T14:20:47.328Z,2381
2019-06-20T14:21:49.007Z,2258
2019-06-20T14:22:50.752Z,2022
2019-06-20T14:23:46.867Z,1908
2019-06-20T14:24:49.463Z,1729
2019-06-20T14:25:50.301Z,1592
2019-06-20T14:26:53.075Z,1497
2019-06-20T14:27:49.826Z,1432
2019-06-20T14:28:47.026Z,1411
2019-06-20T14:29:47.727Z,1347
2019-06-20T14:30:49.091Z,1302
2019-06-20T14:31:48.003Z,1140
2019-06-20T14:32:49.965Z,1172
2019-06-20T14:33:47.208Z,1024
2019-06-20T14:34:48.994Z,1125
2019-06-20T14:35:47.783Z,1116
2019-06-20T14:36:49.082Z,1105
2019-06-20T14:37:47.730Z,1044
2019-06-20T14:38:48.185Z,940
2019-06-20T14:39:53.693Z,922
2019-06-20T14:40:48.612Z,884
2019-06-20T14:41:47.501Z,898
2019-06-20T14:42:48.739Z,899
2019-06-20T14:43:48.422Z,961
2019-06-20T14:44:48.565Z,1089
2019-06-20T14:45:47.312Z,1067
2019-06-20T14:47:05.003Z,1116
2019-06-20T14:48:19.434Z,1157
2019-06-20T14:48:48.882Z,1174
2019-06-20T14:50:48.197Z,1205
2019-06-20T14:51:48.850Z,1171
2019-06-20T14:52:48.455Z,1139
2019-06-20T14:53:48.132Z,1177
2019-06-20T14:54:48.373Z,1182
2019-06-20T14:55:48.406Z,1119
2019-06-20T14:56:48.491Z,1087
2019-06-20T14:57:48.918Z,1063
2019-06-20T14:58:49.957Z,890
2019-06-20T14:59:48.622Z,1022
2019-06-20T15:00:48.602Z,1038
2019-06-20T15:01:49.195Z,1060
2019-06-20T15:02:52.938Z,1162
2019-06-20T15:03:50.297Z,1292
2019-06-20T15:04:48.797Z,1376
2019-06-20T15:05:48.928Z,1472
2019-06-20T15:06:49.099Z,1430
2019-06-20T15:07:49.961Z,1189
2019-06-20T15:08:49.479Z,1254
2019-06-20T15:09:49.921Z,1125
2019-06-20T15:10:50.621Z,1128
2019-06-20T15:11:49.646Z,1086
2019-06-20T15:12:50.177Z,1022
2019-06-20T15:13:49.949Z,1140
2019-06-20T15:14:50.060Z,1163
2019-06-20T15:15:49.912Z,1295
2019-06-20T15:16:49.961Z,1418
2019-06-20T15:17:52.083Z,1406
2019-06-20T15:18:52.322Z,1381
2019-06-20T15:19:50.203Z,1295
2019-06-20T15:20:50.580Z,1144
2019-06-20T15:21:50.736Z,1118
2019-06-20T15:22:51.176Z,1068
2019-06-20T15:23:51.194Z,976
2019-06-20T15:24:52.085Z,1023
2019-06-20T15:25:50.775Z,1068
2019-06-20T15:26:51.029Z,1075
2019-06-20T15:27:51.789Z,1102
2019-06-20T15:28:51.740Z,1389
2019-06-20T15:29:50.986Z,1450
2019-06-20T15:30:51.286Z,1408
2019-06-20T15:31:51.284Z,1416
2019-06-20T15:33:01.690Z,1394
2019-06-20T15:33:51.916Z,1430
2019-06-20T15:34:51.992Z,1558
2019-06-20T15:35:53.345Z,1476
2019-06-20T15:36:51.951Z,1258
2019-06-20T15:37:51.950Z,1536
2019-06-20T15:38:51.657Z,1607
2019-06-20T15:39:52.065Z,1773
2019-06-20T15:40:52.121Z,1914
2019-06-20T15:41:52.824Z,2169
2019-06-20T15:42:53.390Z,2900
2019-06-20T15:43:52.287Z,3182
2019-06-20T15:44:52.524Z,4125
2019-06-20T15:45:52.472Z,2355
